sensor_id;sensor_type;location;lat;lon;timestamp;P1;durP1;ratioP1;P2;durP2;ratioP2
21148;SDS011;10732;51.472;6.466;2023-12-07T00:01:15;114.27;;;63.23;;
21148;SDS011;10732;51.472;6.466;2023-12-07T00:03:41;112.93;;;62.47;;
21148;SDS011;10732;51.472;6.466;2023-12-07T00:06:07;117.00;;;62.00;;
21148;SDS011;10732;51.472;6.466;2023-12-07T00:08:32;101.63;;;59.43;;
21148;SDS011;10732;51.472;6.466;2023-12-07T00:10:58;106.43;;;61.87;;
21148;SDS011;10732;51.472;6.466;2023-12-07T00:13:23;131.67;;;68.97;;
21148;SDS011;10732;51.472;6.466;2023-12-07T00:15:49;99.10;;;59.50;;
21148;SDS011;10732;51.472;6.466;2023-12-07T00:18:15;118.67;;;63.07;;
21148;SDS011;10732;51.472;6.466;2023-12-07T00:20:40;129.30;;;64.47;;
21148;SDS011;10732;51.472;6.466;2023-12-07T00:23:06;96.27;;;59.77;;
21148;SDS011;10732;51.472;6.466;2023-12-07T00:25:31;104.37;;;59.77;;
21148;SDS011;10732;51.472;6.466;2023-12-07T00:27:57;107.47;;;59.50;;
21148;SDS011;10732;51.472;6.466;2023-12-07T00:30:23;123.27;;;61.57;;
21148;SDS011;10732;51.472;6.466;2023-12-07T00:32:48;121.83;;;62.17;;
21148;SDS011;10732;51.472;6.466;2023-12-07T00:35:14;118.33;;;62.93;;
21148;SDS011;10732;51.472;6.466;2023-12-07T00:37:41;102.60;;;61.37;;
21148;SDS011;10732;51.472;6.466;2023-12-07T00:40:07;106.73;;;59.73;;
21148;SDS011;10732;51.472;6.466;2023-12-07T00:42:32;115.50;;;64.23;;
21148;SDS011;10732;51.472;6.466;2023-12-07T00:44:59;84.20;;;55.40;;
21148;SDS011;10732;51.472;6.466;2023-12-07T00:47:25;99.47;;;60.07;;
21148;SDS011;10732;51.472;6.466;2023-12-07T00:49:50;103.90;;;59.33;;
21148;SDS011;10732;51.472;6.466;2023-12-07T00:52:16;79.97;;;53.90;;
21148;SDS011;10732;51.472;6.466;2023-12-07T00:54:41;102.97;;;57.90;;
21148;SDS011;10732;51.472;6.466;2023-12-07T00:57:07;106.20;;;58.20;;
21148;SDS011;10732;51.472;6.466;2023-12-07T00:59:33;99.37;;;57.90;;
21148;SDS011;10732;51.472;6.466;2023-12-07T01:01:59;100.67;;;57.40;;
21148;SDS011;10732;51.472;6.466;2023-12-07T01:04:28;105.97;;;58.73;;
21148;SDS011;10732;51.472;6.466;2023-12-07T01:06:54;105.00;;;56.17;;
21148;SDS011;10732;51.472;6.466;2023-12-07T01:09:20;96.00;;;56.63;;
21148;SDS011;10732;51.472;6.466;2023-12-07T01:11:46;91.73;;;55.43;;
21148;SDS011;10732;51.472;6.466;2023-12-07T01:14:12;104.97;;;58.23;;
21148;SDS011;10732;51.472;6.466;2023-12-07T01:16:38;102.73;;;57.27;;
21148;SDS011;10732;51.472;6.466;2023-12-07T01:19:03;93.00;;;54.27;;
21148;SDS011;10732;51.472;6.466;2023-12-07T01:21:29;104.63;;;57.70;;
21148;SDS011;10732;51.472;6.466;2023-12-07T01:23:54;91.03;;;55.47;;
21148;SDS011;10732;51.472;6.466;2023-12-07T01:26:20;101.77;;;56.90;;
21148;SDS011;10732;51.472;6.466;2023-12-07T01:28:46;103.70;;;58.07;;
21148;SDS011;10732;51.472;6.466;2023-12-07T01:31:11;108.93;;;59.03;;
21148;SDS011;10732;51.472;6.466;2023-12-07T01:33:37;114.90;;;62.87;;
21148;SDS011;10732;51.472;6.466;2023-12-07T01:36:02;108.40;;;61.03;;
21148;SDS011;10732;51.472;6.466;2023-12-07T01:38:28;109.40;;;61.23;;
21148;SDS011;10732;51.472;6.466;2023-12-07T01:40:54;116.40;;;65.83;;
21148;SDS011;10732;51.472;6.466;2023-12-07T01:43:19;115.70;;;63.37;;
21148;SDS011;10732;51.472;6.466;2023-12-07T01:45:47;116.93;;;64.50;;
21148;SDS011;10732;51.472;6.466;2023-12-07T01:48:13;122.17;;;65.67;;
21148;SDS011;10732;51.472;6.466;2023-12-07T01:50:38;119.10;;;64.53;;
21148;SDS011;10732;51.472;6.466;2023-12-07T01:53:04;121.67;;;68.77;;
21148;SDS011;10732;51.472;6.466;2023-12-07T01:55:31;122.27;;;65.87;;
21148;SDS011;10732;51.472;6.466;2023-12-07T01:57:57;112.53;;;62.40;;
21148;SDS011;10732;51.472;6.466;2023-12-07T02:00:23;127.43;;;67.03;;
21148;SDS011;10732;51.472;6.466;2023-12-07T02:02:51;136.03;;;68.23;;
21148;SDS011;10732;51.472;6.466;2023-12-07T02:05:17;136.23;;;70.00;;
21148;SDS011;10732;51.472;6.466;2023-12-07T02:07:43;133.03;;;69.83;;
21148;SDS011;10732;51.472;6.466;2023-12-07T02:10:09;119.70;;;67.03;;
21148;SDS011;10732;51.472;6.466;2023-12-07T02:12:38;134.47;;;70.73;;
21148;SDS011;10732;51.472;6.466;2023-12-07T02:15:04;114.63;;;67.67;;
21148;SDS011;10732;51.472;6.466;2023-12-07T02:20:26;127.13;;;66.83;;
21148;SDS011;10732;51.472;6.466;2023-12-07T02:22:56;119.50;;;66.53;;
21148;SDS011;10732;51.472;6.466;2023-12-07T02:25:29;124.77;;;67.77;;
21148;SDS011;10732;51.472;6.466;2023-12-07T02:28:00;118.77;;;65.77;;
21148;SDS011;10732;51.472;6.466;2023-12-07T02:30:25;115.43;;;63.93;;
21148;SDS011;10732;51.472;6.466;2023-12-07T02:32:51;116.40;;;66.50;;
21148;SDS011;10732;51.472;6.466;2023-12-07T02:35:17;122.97;;;67.03;;
21148;SDS011;10732;51.472;6.466;2023-12-07T02:37:46;136.13;;;69.00;;
21148;SDS011;10732;51.472;6.466;2023-12-07T02:40:17;156.50;;;77.33;;
21148;SDS011;10732;51.472;6.466;2023-12-07T02:42:43;128.00;;;74.20;;
21148;SDS011;10732;51.472;6.466;2023-12-07T02:45:10;130.33;;;73.67;;
21148;SDS011;10732;51.472;6.466;2023-12-07T02:47:37;135.93;;;73.90;;
21148;SDS011;10732;51.472;6.466;2023-12-07T02:50:04;129.07;;;71.30;;
21148;SDS011;10732;51.472;6.466;2023-12-07T02:52:31;138.33;;;73.53;;
21148;SDS011;10732;51.472;6.466;2023-12-07T02:54:57;125.30;;;69.83;;
21148;SDS011;10732;51.472;6.466;2023-12-07T02:57:22;126.70;;;68.00;;
21148;SDS011;10732;51.472;6.466;2023-12-07T02:59:48;114.67;;;65.97;;
21148;SDS011;10732;51.472;6.466;2023-12-07T03:02:13;115.10;;;66.10;;
21148;SDS011;10732;51.472;6.466;2023-12-07T03:04:39;119.73;;;66.53;;
21148;SDS011;10732;51.472;6.466;2023-12-07T03:07:04;154.50;;;71.57;;
21148;SDS011;10732;51.472;6.466;2023-12-07T03:09:30;133.20;;;68.17;;
21148;SDS011;10732;51.472;6.466;2023-12-07T03:11:56;356.17;;;98.13;;
21148;SDS011;10732;51.472;6.466;2023-12-07T03:14:21;196.83;;;76.37;;
21148;SDS011;10732;51.472;6.466;2023-12-07T03:16:47;295.60;;;79.20;;
21148;SDS011;10732;51.472;6.466;2023-12-07T03:19:12;156.90;;;72.57;;
21148;SDS011;10732;51.472;6.466;2023-12-07T03:21:38;311.50;;;83.97;;
21148;SDS011;10732;51.472;6.466;2023-12-07T03:24:04;204.33;;;81.00;;
21148;SDS011;10732;51.472;6.466;2023-12-07T03:26:34;167.47;;;77.07;;
21148;SDS011;10732;51.472;6.466;2023-12-07T03:29:00;195.17;;;82.63;;
21148;SDS011;10732;51.472;6.466;2023-12-07T03:31:26;426.20;;;94.57;;
21148;SDS011;10732;51.472;6.466;2023-12-07T03:33:53;156.97;;;77.00;;
21148;SDS011;10732;51.472;6.466;2023-12-07T03:36:19;385.03;;;91.63;;
21148;SDS011;10732;51.472;6.466;2023-12-07T03:38:45;606.93;;;114.20;;
21148;SDS011;10732;51.472;6.466;2023-12-07T03:41:10;385.10;;;99.87;;
21148;SDS011;10732;51.472;6.466;2023-12-07T03:43:36;321.27;;;93.83;;
21148;SDS011;10732;51.472;6.466;2023-12-07T03:46:07;209.10;;;84.57;;
21148;SDS011;10732;51.472;6.466;2023-12-07T03:48:33;579.60;;;122.13;;
21148;SDS011;10732;51.472;6.466;2023-12-07T03:50:59;245.77;;;86.30;;
21148;SDS011;10732;51.472;6.466;2023-12-07T03:53:25;168.90;;;74.03;;
21148;SDS011;10732;51.472;6.466;2023-12-07T03:55:51;410.83;;;89.80;;
21148;SDS011;10732;51.472;6.466;2023-12-07T03:58:17;283.27;;;98.13;;
21148;SDS011;10732;51.472;6.466;2023-12-07T04:00:43;171.23;;;76.83;;
21148;SDS011;10732;51.472;6.466;2023-12-07T04:03:09;412.23;;;93.43;;
21148;SDS011;10732;51.472;6.466;2023-12-07T04:05:35;378.83;;;106.13;;
21148;SDS011;10732;51.472;6.466;2023-12-07T04:08:00;293.63;;;92.17;;
21148;SDS011;10732;51.472;6.466;2023-12-07T04:10:26;189.03;;;80.53;;
21148;SDS011;10732;51.472;6.466;2023-12-07T04:12:51;220.30;;;76.73;;
21148;SDS011;10732;51.472;6.466;2023-12-07T04:15:19;320.70;;;93.83;;
21148;SDS011;10732;51.472;6.466;2023-12-07T04:17:46;299.07;;;86.20;;
21148;SDS011;10732;51.472;6.466;2023-12-07T04:20:11;218.43;;;78.03;;
21148;SDS011;10732;51.472;6.466;2023-12-07T04:22:38;151.13;;;66.73;;
21148;SDS011;10732;51.472;6.466;2023-12-07T04:25:04;298.43;;;89.17;;
21148;SDS011;10732;51.472;6.466;2023-12-07T04:27:30;273.47;;;81.13;;
21148;SDS011;10732;51.472;6.466;2023-12-07T04:29:56;280.00;;;78.93;;
21148;SDS011;10732;51.472;6.466;2023-12-07T04:32:22;305.53;;;74.93;;
21148;SDS011;10732;51.472;6.466;2023-12-07T04:34:48;235.57;;;68.90;;
21148;SDS011;10732;51.472;6.466;2023-12-07T04:37:14;393.87;;;87.57;;
21148;SDS011;10732;51.472;6.466;2023-12-07T04:39:40;251.83;;;77.33;;
21148;SDS011;10732;51.472;6.466;2023-12-07T04:42:05;329.30;;;83.63;;
21148;SDS011;10732;51.472;6.466;2023-12-07T04:44:31;434.43;;;90.57;;
21148;SDS011;10732;51.472;6.466;2023-12-07T04:46:56;222.57;;;66.93;;
21148;SDS011;10732;51.472;6.466;2023-12-07T04:49:22;267.43;;;70.57;;
21148;SDS011;10732;51.472;6.466;2023-12-07T04:51:47;285.13;;;73.63;;
21148;SDS011;10732;51.472;6.466;2023-12-07T04:54:13;280.37;;;71.93;;
21148;SDS011;10732;51.472;6.466;2023-12-07T04:56:41;306.07;;;68.80;;
21148;SDS011;10732;51.472;6.466;2023-12-07T04:59:08;261.40;;;73.00;;
21148;SDS011;10732;51.472;6.466;2023-12-07T05:01:35;163.23;;;52.87;;
21148;SDS011;10732;51.472;6.466;2023-12-07T05:04:01;248.93;;;68.23;;
21148;SDS011;10732;51.472;6.466;2023-12-07T05:06:28;191.63;;;64.90;;
21148;SDS011;10732;51.472;6.466;2023-12-07T05:08:58;424.40;;;92.80;;
21148;SDS011;10732;51.472;6.466;2023-12-07T05:11:23;358.47;;;79.17;;
21148;SDS011;10732;51.472;6.466;2023-12-07T05:13:49;530.63;;;89.10;;
21148;SDS011;10732;51.472;6.466;2023-12-07T05:16:14;219.97;;;55.23;;
21148;SDS011;10732;51.472;6.466;2023-12-07T05:18:40;262.23;;;57.57;;
21148;SDS011;10732;51.472;6.466;2023-12-07T05:21:06;177.77;;;55.13;;
21148;SDS011;10732;51.472;6.466;2023-12-07T05:23:32;214.23;;;60.10;;
21148;SDS011;10732;51.472;6.466;2023-12-07T05:25:58;198.87;;;58.43;;
21148;SDS011;10732;51.472;6.466;2023-12-07T05:28:24;165.23;;;60.00;;
21148;SDS011;10732;51.472;6.466;2023-12-07T05:30:50;183.43;;;66.83;;
21148;SDS011;10732;51.472;6.466;2023-12-07T05:33:17;169.07;;;56.87;;
21148;SDS011;10732;51.472;6.466;2023-12-07T05:35:44;176.83;;;59.40;;
21148;SDS011;10732;51.472;6.466;2023-12-07T05:38:10;196.67;;;62.17;;
21148;SDS011;10732;51.472;6.466;2023-12-07T05:40:35;193.20;;;61.20;;
21148;SDS011;10732;51.472;6.466;2023-12-07T05:43:01;126.07;;;53.23;;
21148;SDS011;10732;51.472;6.466;2023-12-07T05:45:27;240.77;;;65.63;;
21148;SDS011;10732;51.472;6.466;2023-12-07T05:47:52;156.93;;;56.40;;
21148;SDS011;10732;51.472;6.466;2023-12-07T05:50:18;184.33;;;63.30;;
21148;SDS011;10732;51.472;6.466;2023-12-07T05:52:45;284.57;;;64.97;;
21148;SDS011;10732;51.472;6.466;2023-12-07T05:55:11;159.27;;;53.97;;
21148;SDS011;10732;51.472;6.466;2023-12-07T05:57:36;247.50;;;63.13;;
21148;SDS011;10732;51.472;6.466;2023-12-07T06:00:02;242.00;;;63.03;;
21148;SDS011;10732;51.472;6.466;2023-12-07T06:02:30;223.03;;;62.13;;
21148;SDS011;10732;51.472;6.466;2023-12-07T06:04:56;275.77;;;64.63;;
21148;SDS011;10732;51.472;6.466;2023-12-07T06:07:21;236.67;;;60.37;;
21148;SDS011;10732;51.472;6.466;2023-12-07T06:09:47;322.27;;;64.20;;
21148;SDS011;10732;51.472;6.466;2023-12-07T06:12:12;245.30;;;57.87;;
21148;SDS011;10732;51.472;6.466;2023-12-07T06:14:38;160.00;;;50.23;;
21148;SDS011;10732;51.472;6.466;2023-12-07T06:17:03;254.90;;;60.43;;
21148;SDS011;10732;51.472;6.466;2023-12-07T06:19:29;303.90;;;57.90;;
21148;SDS011;10732;51.472;6.466;2023-12-07T06:21:55;231.03;;;55.80;;
21148;SDS011;10732;51.472;6.466;2023-12-07T06:24:22;181.33;;;52.93;;
21148;SDS011;10732;51.472;6.466;2023-12-07T06:26:49;223.70;;;59.70;;
21148;SDS011;10732;51.472;6.466;2023-12-07T06:29:17;139.83;;;55.37;;
21148;SDS011;10732;51.472;6.466;2023-12-07T06:31:43;295.93;;;66.27;;
21148;SDS011;10732;51.472;6.466;2023-12-07T06:34:09;306.20;;;68.10;;
21148;SDS011;10732;51.472;6.466;2023-12-07T06:36:35;372.90;;;59.97;;
21148;SDS011;10732;51.472;6.466;2023-12-07T06:39:02;295.03;;;59.07;;
21148;SDS011;10732;51.472;6.466;2023-12-07T06:41:28;228.90;;;49.50;;
21148;SDS011;10732;51.472;6.466;2023-12-07T06:43:54;288.57;;;58.00;;
21148;SDS011;10732;51.472;6.466;2023-12-07T06:46:19;197.53;;;49.47;;
21148;SDS011;10732;51.472;6.466;2023-12-07T06:48:45;173.67;;;48.70;;
21148;SDS011;10732;51.472;6.466;2023-12-07T06:51:10;220.37;;;52.10;;
21148;SDS011;10732;51.472;6.466;2023-12-07T06:53:39;149.33;;;45.23;;
21148;SDS011;10732;51.472;6.466;2023-12-07T06:56:06;211.47;;;50.57;;
21148;SDS011;10732;51.472;6.466;2023-12-07T06:58:32;155.20;;;47.83;;
21148;SDS011;10732;51.472;6.466;2023-12-07T07:00:57;236.00;;;53.30;;
21148;SDS011;10732;51.472;6.466;2023-12-07T07:03:23;153.47;;;45.90;;
21148;SDS011;10732;51.472;6.466;2023-12-07T07:05:49;129.97;;;45.70;;
21148;SDS011;10732;51.472;6.466;2023-12-07T07:08:15;172.03;;;50.73;;
21148;SDS011;10732;51.472;6.466;2023-12-07T07:10:41;125.17;;;44.93;;
21148;SDS011;10732;51.472;6.466;2023-12-07T07:13:06;122.70;;;43.70;;
21148;SDS011;10732;51.472;6.466;2023-12-07T07:15:32;96.17;;;42.70;;
21148;SDS011;10732;51.472;6.466;2023-12-07T07:17:58;132.87;;;43.87;;
21148;SDS011;10732;51.472;6.466;2023-12-07T07:20:24;148.57;;;46.50;;
21148;SDS011;10732;51.472;6.466;2023-12-07T07:22:50;148.43;;;45.03;;
21148;SDS011;10732;51.472;6.466;2023-12-07T07:25:15;198.10;;;51.03;;
21148;SDS011;10732;51.472;6.466;2023-12-07T07:27:44;124.73;;;46.00;;
21148;SDS011;10732;51.472;6.466;2023-12-07T07:30:10;117.83;;;43.87;;
21148;SDS011;10732;51.472;6.466;2023-12-07T07:32:36;126.97;;;42.93;;
21148;SDS011;10732;51.472;6.466;2023-12-07T07:35:02;245.70;;;55.27;;
21148;SDS011;10732;51.472;6.466;2023-12-07T07:37:28;179.07;;;47.67;;
21148;SDS011;10732;51.472;6.466;2023-12-07T07:39:53;142.70;;;45.67;;
21148;SDS011;10732;51.472;6.466;2023-12-07T07:42:19;184.10;;;48.30;;
21148;SDS011;10732;51.472;6.466;2023-12-07T07:44:44;215.27;;;53.93;;
21148;SDS011;10732;51.472;6.466;2023-12-07T07:47:10;221.77;;;50.37;;
21148;SDS011;10732;51.472;6.466;2023-12-07T07:49:35;135.80;;;45.07;;
21148;SDS011;10732;51.472;6.466;2023-12-07T07:52:02;122.37;;;45.00;;
21148;SDS011;10732;51.472;6.466;2023-12-07T07:54:28;100.20;;;42.17;;
21148;SDS011;10732;51.472;6.466;2023-12-07T07:56:53;150.00;;;48.23;;
21148;SDS011;10732;51.472;6.466;2023-12-07T07:59:19;135.73;;;44.57;;
21148;SDS011;10732;51.472;6.466;2023-12-07T08:01:45;193.10;;;48.50;;
21148;SDS011;10732;51.472;6.466;2023-12-07T08:04:12;137.63;;;45.83;;
21148;SDS011;10732;51.472;6.466;2023-12-07T08:06:37;242.57;;;47.53;;
21148;SDS011;10732;51.472;6.466;2023-12-07T08:09:03;113.50;;;41.03;;
21148;SDS011;10732;51.472;6.466;2023-12-07T08:11:29;154.37;;;40.67;;
21148;SDS011;10732;51.472;6.466;2023-12-07T08:13:54;162.10;;;43.10;;
21148;SDS011;10732;51.472;6.466;2023-12-07T08:16:20;126.07;;;37.87;;
21148;SDS011;10732;51.472;6.466;2023-12-07T08:18:45;137.17;;;39.87;;
21148;SDS011;10732;51.472;6.466;2023-12-07T08:21:19;118.00;;;37.90;;
21148;SDS011;10732;51.472;6.466;2023-12-07T08:23:45;119.77;;;40.77;;
21148;SDS011;10732;51.472;6.466;2023-12-07T08:26:11;161.83;;;41.53;;
21148;SDS011;10732;51.472;6.466;2023-12-07T08:28:39;176.20;;;42.83;;
21148;SDS011;10732;51.472;6.466;2023-12-07T08:31:05;124.77;;;39.43;;
21148;SDS011;10732;51.472;6.466;2023-12-07T08:33:31;159.37;;;41.37;;
21148;SDS011;10732;51.472;6.466;2023-12-07T08:35:59;191.53;;;43.00;;
21148;SDS011;10732;51.472;6.466;2023-12-07T08:38:25;257.27;;;46.77;;
21148;SDS011;10732;51.472;6.466;2023-12-07T08:40:50;127.73;;;38.80;;
21148;SDS011;10732;51.472;6.466;2023-12-07T08:43:16;279.30;;;46.73;;
21148;SDS011;10732;51.472;6.466;2023-12-07T08:45:43;281.10;;;45.83;;
21148;SDS011;10732;51.472;6.466;2023-12-07T08:48:09;233.10;;;44.77;;
21148;SDS011;10732;51.472;6.466;2023-12-07T08:50:34;295.73;;;48.70;;
21148;SDS011;10732;51.472;6.466;2023-12-07T08:53:00;174.17;;;38.93;;
21148;SDS011;10732;51.472;6.466;2023-12-07T08:55:25;392.20;;;50.80;;
21148;SDS011;10732;51.472;6.466;2023-12-07T08:57:52;247.37;;;42.33;;
21148;SDS011;10732;51.472;6.466;2023-12-07T09:00:18;192.33;;;43.37;;
21148;SDS011;10732;51.472;6.466;2023-12-07T09:02:48;279.33;;;44.70;;
21148;SDS011;10732;51.472;6.466;2023-12-07T09:05:14;172.47;;;40.03;;
21148;SDS011;10732;51.472;6.466;2023-12-07T09:07:40;234.70;;;45.10;;
21148;SDS011;10732;51.472;6.466;2023-12-07T09:10:07;190.17;;;42.70;;
21148;SDS011;10732;51.472;6.466;2023-12-07T09:12:33;150.20;;;45.23;;
21148;SDS011;10732;51.472;6.466;2023-12-07T09:15:00;241.90;;;46.30;;
21148;SDS011;10732;51.472;6.466;2023-12-07T09:17:27;231.30;;;48.47;;
21148;SDS011;10732;51.472;6.466;2023-12-07T09:19:52;257.07;;;43.27;;
21148;SDS011;10732;51.472;6.466;2023-12-07T09:22:19;216.07;;;45.13;;
21148;SDS011;10732;51.472;6.466;2023-12-07T09:24:45;226.53;;;41.23;;
21148;SDS011;10732;51.472;6.466;2023-12-07T09:27:11;166.60;;;40.50;;
21148;SDS011;10732;51.472;6.466;2023-12-07T09:29:38;290.73;;;44.77;;
21148;SDS011;10732;51.472;6.466;2023-12-07T09:32:04;193.53;;;43.10;;
21148;SDS011;10732;51.472;6.466;2023-12-07T09:34:30;149.63;;;38.30;;
21148;SDS011;10732;51.472;6.466;2023-12-07T09:37:08;194.00;;;41.73;;
21148;SDS011;10732;51.472;6.466;2023-12-07T09:39:34;189.10;;;42.07;;
21148;SDS011;10732;51.472;6.466;2023-12-07T09:42:01;198.67;;;44.30;;
21148;SDS011;10732;51.472;6.466;2023-12-07T09:44:26;118.30;;;38.67;;
21148;SDS011;10732;51.472;6.466;2023-12-07T09:46:52;183.73;;;42.33;;
21148;SDS011;10732;51.472;6.466;2023-12-07T09:49:18;135.33;;;41.40;;
21148;SDS011;10732;51.472;6.466;2023-12-07T09:51:44;138.03;;;37.87;;
21148;SDS011;10732;51.472;6.466;2023-12-07T09:54:11;100.70;;;36.20;;
21148;SDS011;10732;51.472;6.466;2023-12-07T09:56:37;113.80;;;38.37;;
21148;SDS011;10732;51.472;6.466;2023-12-07T09:59:03;127.63;;;39.13;;
21148;SDS011;10732;51.472;6.466;2023-12-07T10:01:29;122.47;;;39.53;;
21148;SDS011;10732;51.472;6.466;2023-12-07T10:06:43;88.57;;;38.57;;
21148;SDS011;10732;51.472;6.466;2023-12-07T10:09:15;98.03;;;39.37;;
21148;SDS011;10732;51.472;6.466;2023-12-07T10:11:41;76.60;;;36.93;;
21148;SDS011;10732;51.472;6.466;2023-12-07T10:14:08;75.43;;;36.70;;
21148;SDS011;10732;51.472;6.466;2023-12-07T10:16:34;81.40;;;38.20;;
21148;SDS011;10732;51.472;6.466;2023-12-07T10:21:55;68.47;;;36.63;;
21148;SDS011;10732;51.472;6.466;2023-12-07T10:24:21;64.47;;;36.53;;
21148;SDS011;10732;51.472;6.466;2023-12-07T10:26:49;61.47;;;34.13;;
21148;SDS011;10732;51.472;6.466;2023-12-07T10:29:17;59.27;;;34.47;;
21148;SDS011;10732;51.472;6.466;2023-12-07T10:31:44;54.93;;;33.83;;
21148;SDS011;10732;51.472;6.466;2023-12-07T10:34:11;56.73;;;33.20;;
21148;SDS011;10732;51.472;6.466;2023-12-07T10:36:37;56.33;;;33.67;;
21148;SDS011;10732;51.472;6.466;2023-12-07T10:39:03;47.77;;;30.60;;
21148;SDS011;10732;51.472;6.466;2023-12-07T10:41:31;49.77;;;31.77;;
21148;SDS011;10732;51.472;6.466;2023-12-07T10:44:01;47.00;;;30.70;;
21148;SDS011;10732;51.472;6.466;2023-12-07T10:46:32;44.17;;;28.08;;
21148;SDS011;10732;51.472;6.466;2023-12-07T10:49:03;34.83;;;24.30;;
21148;SDS011;10732;51.472;6.466;2023-12-07T10:51:50;36.85;;;24.17;;
21148;SDS011;10732;51.472;6.466;2023-12-07T10:54:25;30.13;;;21.23;;
21148;SDS011;10732;51.472;6.466;2023-12-07T10:57:00;23.90;;;18.25;;
21148;SDS011;10732;51.472;6.466;2023-12-07T10:59:30;22.63;;;16.60;;
21148;SDS011;10732;51.472;6.466;2023-12-07T11:01:57;22.30;;;15.45;;
21148;SDS011;10732;51.472;6.466;2023-12-07T11:04:23;18.90;;;14.68;;
21148;SDS011;10732;51.472;6.466;2023-12-07T11:06:50;19.50;;;12.82;;
21148;SDS011;10732;51.472;6.466;2023-12-07T11:09:23;16.23;;;12.30;;
21148;SDS011;10732;51.472;6.466;2023-12-07T11:11:57;14.55;;;11.77;;
21148;SDS011;10732;51.472;6.466;2023-12-07T11:14:48;14.82;;;12.43;;
21148;SDS011;10732;51.472;6.466;2023-12-07T11:17:14;18.65;;;12.40;;
21148;SDS011;10732;51.472;6.466;2023-12-07T11:19:44;14.50;;;11.38;;
21148;SDS011;10732;51.472;6.466;2023-12-07T11:22:11;18.13;;;12.48;;
21148;SDS011;10732;51.472;6.466;2023-12-07T11:24:37;19.55;;;13.40;;
21148;SDS011;10732;51.472;6.466;2023-12-07T11:27:16;20.77;;;13.98;;
21148;SDS011;10732;51.472;6.466;2023-12-07T11:29:41;17.98;;;13.45;;
21148;SDS011;10732;51.472;6.466;2023-12-07T11:32:07;20.40;;;14.10;;
21148;SDS011;10732;51.472;6.466;2023-12-07T11:34:42;16.77;;;13.88;;
21148;SDS011;10732;51.472;6.466;2023-12-07T11:37:09;20.77;;;14.70;;
21148;SDS011;10732;51.472;6.466;2023-12-07T11:39:36;21.08;;;14.68;;
21148;SDS011;10732;51.472;6.466;2023-12-07T11:42:06;19.90;;;14.02;;
21148;SDS011;10732;51.472;6.466;2023-12-07T11:44:36;18.33;;;14.52;;
21148;SDS011;10732;51.472;6.466;2023-12-07T11:47:03;19.83;;;14.60;;
21148;SDS011;10732;51.472;6.466;2023-12-07T11:49:30;23.65;;;14.35;;
21148;SDS011;10732;51.472;6.466;2023-12-07T11:51:57;19.45;;;15.27;;
21148;SDS011;10732;51.472;6.466;2023-12-07T11:54:23;16.95;;;14.30;;
21148;SDS011;10732;51.472;6.466;2023-12-07T11:56:54;21.10;;;14.32;;
21148;SDS011;10732;51.472;6.466;2023-12-07T11:59:20;20.30;;;14.00;;
21148;SDS011;10732;51.472;6.466;2023-12-07T12:01:47;17.95;;;14.43;;
21148;SDS011;10732;51.472;6.466;2023-12-07T12:04:14;20.38;;;15.02;;
21148;SDS011;10732;51.472;6.466;2023-12-07T12:06:40;18.83;;;15.48;;
21148;SDS011;10732;51.472;6.466;2023-12-07T12:09:08;21.02;;;15.73;;
21148;SDS011;10732;51.472;6.466;2023-12-07T12:11:35;24.80;;;16.45;;
21148;SDS011;10732;51.472;6.466;2023-12-07T12:14:00;22.92;;;17.05;;
21148;SDS011;10732;51.472;6.466;2023-12-07T12:16:26;22.08;;;17.23;;
21148;SDS011;10732;51.472;6.466;2023-12-07T12:18:52;22.38;;;17.20;;
21148;SDS011;10732;51.472;6.466;2023-12-07T12:21:18;22.83;;;17.52;;
21148;SDS011;10732;51.472;6.466;2023-12-07T12:23:43;24.07;;;19.27;;
21148;SDS011;10732;51.472;6.466;2023-12-07T12:26:09;23.53;;;17.67;;
21148;SDS011;10732;51.472;6.466;2023-12-07T12:28:35;24.48;;;17.48;;
21148;SDS011;10732;51.472;6.466;2023-12-07T12:31:08;22.27;;;18.00;;
21148;SDS011;10732;51.472;6.466;2023-12-07T12:33:36;25.67;;;17.90;;
21148;SDS011;10732;51.472;6.466;2023-12-07T12:36:03;23.70;;;17.83;;
21148;SDS011;10732;51.472;6.466;2023-12-07T12:38:31;24.07;;;18.13;;
21148;SDS011;10732;51.472;6.466;2023-12-07T12:40:57;25.90;;;18.80;;
21148;SDS011;10732;51.472;6.466;2023-12-07T12:43:23;24.80;;;18.53;;
21148;SDS011;10732;51.472;6.466;2023-12-07T12:45:49;24.90;;;18.00;;
21148;SDS011;10732;51.472;6.466;2023-12-07T12:48:15;23.10;;;18.08;;
21148;SDS011;10732;51.472;6.466;2023-12-07T12:50:40;22.80;;;18.67;;
21148;SDS011;10732;51.472;6.466;2023-12-07T12:53:10;25.02;;;18.58;;
21148;SDS011;10732;51.472;6.466;2023-12-07T12:55:37;24.47;;;19.30;;
21148;SDS011;10732;51.472;6.466;2023-12-07T12:58:04;23.77;;;18.88;;
21148;SDS011;10732;51.472;6.466;2023-12-07T13:00:32;26.83;;;19.30;;
21148;SDS011;10732;51.472;6.466;2023-12-07T13:02:58;23.57;;;19.67;;
21148;SDS011;10732;51.472;6.466;2023-12-07T13:05:25;25.30;;;19.55;;
21148;SDS011;10732;51.472;6.466;2023-12-07T13:07:51;25.13;;;20.30;;
21148;SDS011;10732;51.472;6.466;2023-12-07T13:10:17;27.38;;;19.65;;
21148;SDS011;10732;51.472;6.466;2023-12-07T13:12:42;25.58;;;19.17;;
21148;SDS011;10732;51.472;6.466;2023-12-07T13:15:11;27.65;;;20.17;;
21148;SDS011;10732;51.472;6.466;2023-12-07T13:17:40;26.70;;;20.17;;
21148;SDS011;10732;51.472;6.466;2023-12-07T13:20:06;24.17;;;19.13;;
21148;SDS011;10732;51.472;6.466;2023-12-07T13:22:36;24.33;;;18.03;;
21148;SDS011;10732;51.472;6.466;2023-12-07T13:25:05;24.07;;;18.90;;
21148;SDS011;10732;51.472;6.466;2023-12-07T13:27:32;27.57;;;19.73;;
21148;SDS011;10732;51.472;6.466;2023-12-07T13:29:58;28.20;;;20.07;;
21148;SDS011;10732;51.472;6.466;2023-12-07T13:32:24;26.35;;;19.80;;
21148;SDS011;10732;51.472;6.466;2023-12-07T13:34:50;28.10;;;19.20;;
21148;SDS011;10732;51.472;6.466;2023-12-07T13:37:15;24.23;;;19.37;;
21148;SDS011;10732;51.472;6.466;2023-12-07T13:39:41;27.57;;;19.57;;
21148;SDS011;10732;51.472;6.466;2023-12-07T13:42:08;24.83;;;18.67;;
21148;SDS011;10732;51.472;6.466;2023-12-07T13:44:34;27.37;;;19.63;;
21148;SDS011;10732;51.472;6.466;2023-12-07T13:47:00;25.37;;;19.40;;
21148;SDS011;10732;51.472;6.466;2023-12-07T13:49:27;26.20;;;19.53;;
21148;SDS011;10732;51.472;6.466;2023-12-07T13:51:52;25.23;;;19.37;;
21148;SDS011;10732;51.472;6.466;2023-12-07T13:54:18;26.77;;;18.67;;
21148;SDS011;10732;51.472;6.466;2023-12-07T13:56:43;25.37;;;17.83;;
21148;SDS011;10732;51.472;6.466;2023-12-07T13:59:09;22.17;;;18.37;;
21148;SDS011;10732;51.472;6.466;2023-12-07T14:01:37;22.97;;;17.83;;
21148;SDS011;10732;51.472;6.466;2023-12-07T14:04:04;23.67;;;18.27;;
21148;SDS011;10732;51.472;6.466;2023-12-07T14:06:31;22.80;;;17.03;;
21148;SDS011;10732;51.472;6.466;2023-12-07T14:09:00;22.50;;;16.47;;
21148;SDS011;10732;51.472;6.466;2023-12-07T14:11:25;21.70;;;17.40;;
21148;SDS011;10732;51.472;6.466;2023-12-07T14:13:51;21.93;;;17.40;;
21148;SDS011;10732;51.472;6.466;2023-12-07T14:16:19;24.70;;;18.53;;
21148;SDS011;10732;51.472;6.466;2023-12-07T14:18:45;21.30;;;17.03;;